Time;durP1;ratioP1;P1;durP2;ratioP2;P2;SDS_P1;SDS_P2;PMS_P1;PMS_P2;Temp;Humidity;BMP_temperature;BMP_pressure;BME280_temperature;BME280_humidity;BME280_pressure;Samples;Min_cycle;Max_cycle;Signal;HPM_P1;HPM_P2
2023/04/24 00:03:20;;;;;;;2.73;1.33;;;12.50;99.90;;;;;;10421100;28;20236;-75
2023/04/24 00:08:22;;;;;;;3.37;1.13;;;12.50;99.90;;;;;;10425962;28;20220;-72
2023/04/24 00:13:23;;;;;;;1.17;0.87;;;12.50;99.90;;;;;;10426343;28;20228;-73
2023/04/24 00:18:23;;;;;;;1.43;0.90;;;12.40;99.90;;;;;;10434102;28;20226;-74
2023/04/24 00:23:24;;;;;;;3.20;0.90;;;12.50;99.90;;;;;;10423584;28;20266;-71
2023/04/24 00:28:24;;;;;;;1.30;1.07;;;12.50;99.90;;;;;;10430494;28;20224;-71
2023/04/24 00:33:25;;;;;;;1.47;1.00;;;12.50;99.90;;;;;;10431781;28;20602;-72
2023/04/24 00:38:25;;;;;;;2.43;1.37;;;12.60;99.90;;;;;;10432219;28;20219;-71
2023/04/24 00:43:26;;;;;;;2.07;1.10;;;12.70;99.90;;;;;;10432802;28;20236;-73
2023/04/24 00:48:27;;;;;;;1.63;1.10;;;12.70;99.90;;;;;;10422545;28;20223;-72
2023/04/24 00:53:28;;;;;;;5.03;1.33;;;12.60;99.90;;;;;;10416947;28;20990;-71
2023/04/24 00:58:30;;;;;;;2.70;1.20;;;12.60;99.90;;;;;;10431686;28;20226;-71
2023/04/24 01:03:31;;;;;;;6.50;1.80;;;12.60;99.90;;;;;;10434118;28;20652;-71
2023/04/24 01:08:34;;;;;;;2.37;1.30;;;12.60;99.90;;;;;;10420305;28;20224;-72
2023/04/24 01:13:35;;;;;;;3.47;1.17;;;12.60;99.90;;;;;;10428547;28;20255;-71
2023/04/24 01:18:35;;;;;;;2.43;1.20;;;12.50;99.90;;;;;;10427921;28;20262;-71
2023/04/24 01:23:36;;;;;;;1.23;1.10;;;12.50;99.90;;;;;;10429988;28;20441;-73
2023/04/24 01:28:37;;;;;;;1.50;1.17;;;12.40;99.90;;;;;;10432494;28;20276;-73
2023/04/24 01:33:38;;;;;;;2.33;1.20;;;12.30;99.90;;;;;;10427912;28;20229;-72
2023/04/24 01:38:38;;;;;;;3.33;1.30;;;12.20;99.90;;;;;;10431202;28;20224;-73
2023/04/24 01:43:40;;;;;;;4.43;1.73;;;12.20;99.90;;;;;;10428834;28;20232;-72
2023/04/24 01:48:41;;;;;;;1.93;1.40;;;12.20;99.90;;;;;;10439252;28;20224;-71
2023/04/24 01:53:42;;;;;;;2.43;1.20;;;12.30;99.90;;;;;;10426783;28;20591;-70
2023/04/24 01:58:43;;;;;;;3.23;1.27;;;12.30;99.90;;;;;;10432514;28;20208;-73
2023/04/24 02:03:44;;;;;;;3.43;1.43;;;12.20;99.90;;;;;;10425747;28;20259;-73
2023/04/24 02:08:44;;;;;;;4.40;1.40;;;12.20;99.90;;;;;;10430924;28;20231;-71
2023/04/24 02:13:45;;;;;;;4.43;1.30;;;12.20;99.90;;;;;;10426817;28;20270;-71
2023/04/24 02:18:46;;;;;;;4.50;1.30;;;12.30;99.90;;;;;;10431854;28;20255;-70
2023/04/24 02:23:46;;;;;;;3.80;1.13;;;12.40;99.90;;;;;;10431170;28;20266;-71
2023/04/24 02:28:47;;;;;;;2.67;1.30;;;12.40;99.90;;;;;;10421335;28;20230;-73
2023/04/24 02:33:47;;;;;;;3.13;1.73;;;12.40;99.90;;;;;;10431083;28;20227;-71
2023/04/24 02:38:48;;;;;;;2.30;1.50;;;12.40;99.90;;;;;;10422410;28;20216;-72
2023/04/24 02:43:48;;;;;;;2.73;1.30;;;12.30;99.90;;;;;;10420840;28;20303;-71
2023/04/24 02:48:49;;;;;;;5.00;1.27;;;12.30;99.90;;;;;;10422040;28;20752;-71
2023/04/24 02:53:50;;;;;;;4.23;1.30;;;12.20;99.90;;;;;;10424873;28;20225;-72
2023/04/24 02:58:50;;;;;;;2.33;1.40;;;12.20;99.90;;;;;;10420373;28;20228;-73
2023/04/24 03:03:51;;;;;;;2.97;1.40;;;12.20;99.90;;;;;;10430263;28;20212;-72
2023/04/24 03:08:51;;;;;;;2.10;1.30;;;12.20;99.90;;;;;;10420288;28;20208;-71
2023/04/24 03:13:52;;;;;;;3.37;1.30;;;12.20;99.90;;;;;;10415101;28;20218;-72
2023/04/24 03:18:56;;;;;;;4.43;1.23;;;12.10;99.90;;;;;;10423069;28;20219;-72
2023/04/24 03:23:56;;;;;;;3.53;1.40;;;12.10;99.90;;;;;;10414754;28;20247;-73
2023/04/24 03:28:58;;;;;;;5.87;1.50;;;12.00;99.90;;;;;;10430946;28;20227;-73
2023/04/24 03:33:58;;;;;;;1.87;1.37;;;11.90;99.90;;;;;;10422715;28;20239;-73
2023/04/24 03:38:59;;;;;;;1.63;1.23;;;11.70;99.90;;;;;;10420906;28;20680;-73
2023/04/24 03:44:00;;;;;;;6.87;1.27;;;11.60;99.90;;;;;;10430419;28;20208;-74
2023/04/24 03:49:00;;;;;;;2.70;1.30;;;11.50;99.90;;;;;;10428825;28;20227;-74
2023/04/24 03:54:01;;;;;;;1.33;1.13;;;11.40;99.90;;;;;;10436929;28;20209;-75
2023/04/24 03:59:02;;;;;;;6.67;1.43;;;11.40;99.90;;;;;;10444462;28;20216;-74
2023/04/24 04:04:03;;;;;;;4.17;1.30;;;11.40;99.90;;;;;;10443400;28;20287;-73
2023/04/24 04:09:04;;;;;;;3.43;1.43;;;11.40;99.90;;;;;;10437969;28;20248;-72
2023/04/24 04:14:05;;;;;;;2.07;1.77;;;11.40;99.90;;;;;;10434936;28;20242;-72
2023/04/24 04:19:05;;;;;;;3.83;1.60;;;11.30;99.90;;;;;;10441818;28;20215;-72
2023/04/24 04:24:07;;;;;;;4.10;1.87;;;11.10;99.90;;;;;;10437629;28;20222;-75
2023/04/24 04:29:07;;;;;;;2.30;1.93;;;10.90;99.90;;;;;;10439284;28;20930;-75
2023/04/24 04:34:08;;;;;;;2.57;2.17;;;10.70;99.90;;;;;;10428784;28;20307;-72
2023/04/24 04:39:09;;;;;;;4.07;2.03;;;10.60;99.90;;;;;;10438874;28;20297;-73
2023/04/24 04:44:10;;;;;;;4.27;2.17;;;10.50;99.90;;;;;;10440081;28;20281;-72
2023/04/24 04:49:10;;;;;;;4.80;2.30;;;10.50;99.90;;;;;;10422380;28;20235;-75
2023/04/24 04:54:11;;;;;;;2.97;2.70;;;10.50;99.90;;;;;;10425433;28;20650;-75
2023/04/24 04:59:12;;;;;;;2.33;2.03;;;10.50;99.90;;;;;;10429391;28;20236;-75
2023/04/24 05:04:12;;;;;;;4.23;2.47;;;10.60;99.90;;;;;;10426787;28;20251;-72
2023/04/24 05:09:13;;;;;;;3.30;2.03;;;10.80;99.90;;;;;;10434467;28;20277;-71
2023/04/24 05:14:14;;;;;;;2.87;2.10;;;11.10;99.90;;;;;;10431530;28;20589;-75
2023/04/24 05:19:14;;;;;;;3.17;2.87;;;11.30;99.90;;;;;;10427006;28;20240;-68
2023/04/24 05:24:15;;;;;;;3.40;2.33;;;11.60;99.90;;;;;;10434629;28;20219;-69
2023/04/24 05:29:15;;;;;;;3.17;1.90;;;12.00;99.90;;;;;;10433511;28;20774;-68
2023/04/24 05:34:16;;;;;;;3.17;1.90;;;13.20;99.90;;;;;;10429943;28;20262;-69
2023/04/24 05:39:17;;;;;;;2.77;2.13;;;13.70;99.90;;;;;;10431982;28;20239;-67
2023/04/24 05:44:18;;;;;;;2.23;2.03;;;13.70;99.90;;;;;;10426963;28;20234;-76
2023/04/24 05:49:24;;;;;;;2.90;2.20;;;14.40;99.90;;;;;;10423363;28;20228;-76
2023/04/24 05:54:28;;;;;;;3.67;2.30;;;15.00;99.90;;;;;;10431708;28;20936;-76
2023/04/24 05:59:29;;;;;;;3.53;2.37;;;15.40;99.90;;;;;;10428502;28;20232;-77
2023/04/24 06:04:30;;;;;;;2.10;2.00;;;15.40;99.90;;;;;;10425809;28;20288;-76
2023/04/24 06:09:31;;;;;;;2.47;2.27;;;15.40;99.90;;;;;;10427910;28;20230;-77
2023/04/24 06:14:32;;;;;;;5.77;2.40;;;15.40;99.90;;;;;;10425138;28;20320;-76
2023/04/24 06:19:32;;;;;;;2.50;1.80;;;16.40;99.90;;;;;;10430357;28;20708;-76
2023/04/24 06:24:36;;;;;;;3.57;2.33;;;17.70;99.90;;;;;;10426748;28;20250;-76
2023/04/24 06:29:37;;;;;;;3.93;2.50;;;18.50;99.90;;;;;;10434433;28;20252;-76
2023/04/24 06:34:38;;;;;;;3.70;2.20;;;19.60;99.90;;;;;;10418233;28;20820;-76
2023/04/24 06:39:38;;;;;;;3.97;1.80;;;21.20;96.30;;;;;;10420177;28;20220;-77
2023/04/24 06:44:42;;;;;;;3.30;2.00;;;22.60;91.20;;;;;;10420297;28;20624;-78
2023/04/24 06:49:46;;;;;;;4.10;2.43;;;23.20;84.60;;;;;;10414137;28;20270;-77
2023/04/24 06:54:46;;;;;;;4.13;2.70;;;22.70;79.10;;;;;;10422739;28;20237;-78
2023/04/24 06:59:47;;;;;;;3.93;3.30;;;20.90;85.20;;;;;;10417976;28;20770;-76
2023/04/24 07:04:48;;;;;;;5.13;3.47;;;19.10;89.20;;;;;;10423171;28;20303;-75
2023/04/24 07:09:48;;;;;;;4.50;2.97;;;17.50;93.90;;;;;;10428801;28;20653;-76
2023/04/24 07:14:50;;;;;;;4.47;3.57;;;17.10;95.60;;;;;;10421681;28;20609;-76
2023/04/24 07:19:51;;;;;;;4.00;2.90;;;17.10;97.20;;;;;;10422663;28;20532;-77
2023/04/24 07:24:52;;;;;;;5.47;3.43;;;17.10;96.20;;;;;;10420503;28;20261;-76
2023/04/24 07:29:52;;;;;;;3.97;3.67;;;16.50;97.20;;;;;;10423217;28;20231;-77
2023/04/24 07:34:53;;;;;;;3.80;3.50;;;15.60;98.80;;;;;;10430425;28;20261;-76
2023/04/24 07:39:53;;;;;;;3.77;3.03;;;15.00;99.90;;;;;;10421178;28;20232;-75
2023/04/24 07:44:54;;;;;;;6.23;3.40;;;15.00;99.90;;;;;;10428717;28;20241;-77
2023/04/24 07:49:55;;;;;;;5.00;3.33;;;15.70;99.90;;;;;;10420812;28;20214;-77
2023/04/24 07:55:00;;;;;;;4.03;2.87;;;16.90;99.90;;;;;;10429904;28;20227;-78
2023/04/24 08:00:00;;;;;;;4.83;2.27;;;19.60;93.90;;;;;;10428458;28;20223;-76
2023/04/24 08:05:03;;;;;;;1.93;1.73;;;18.60;92.40;;;;;;10421628;28;20241;-76
2023/04/24 08:10:04;;;;;;;1.83;1.20;;;18.00;93.80;;;;;;10421424;28;20606;-77
2023/04/24 08:15:05;;;;;;;2.57;1.43;;;20.90;85.50;;;;;;10426791;28;20784;-76
2023/04/24 08:20:13;;;;;;;1.70;1.40;;;23.20;68.30;;;;;;10423367;28;20219;-76
2023/04/24 08:25:13;;;;;;;1.67;1.57;;;21.00;69.00;;;;;;10425785;28;20224;-76
2023/04/24 08:30:14;;;;;;;2.70;1.60;;;18.90;77.50;;;;;;10417470;28;20612;-77
2023/04/24 08:35:15;;;;;;;2.40;2.00;;;17.30;83.90;;;;;;10430026;28;20210;-77
2023/04/24 08:40:16;;;;;;;2.03;1.80;;;17.90;86.40;;;;;;10426711;28;20702;-76
2023/04/24 08:45:17;;;;;;;3.10;1.80;;;20.50;74.70;;;;;;10428546;28;20214;-76
2023/04/24 08:50:18;;;;;;;3.23;1.93;;;20.50;75.00;;;;;;10429229;28;20223;-76
2023/04/24 08:55:20;;;;;;;3.80;1.90;;;19.80;76.30;;;;;;10424305;28;20215;-76
2023/04/24 09:00:21;;;;;;;3.40;2.30;;;18.40;78.40;;;;;;10424866;28;20292;-76
2023/04/24 09:05:23;;;;;;;2.63;2.23;;;17.60;82.70;;;;;;10427063;28;20274;-77
2023/04/24 09:10:26;;;;;;;2.77;2.57;;;16.70;83.70;;;;;;10429868;28;20187;-76
2023/04/24 09:15:27;;;;;;;4.27;2.30;;;16.00;88.80;;;;;;10430495;28;20559;-77
2023/04/24 09:20:27;;;;;;;2.10;1.90;;;15.50;91.80;;;;;;10430586;28;20233;-76
2023/04/24 09:25:38;;;;;;;1.90;1.80;;;15.40;91.70;;;;;;10423026;28;20576;-77
2023/04/24 09:30:38;;;;;;;2.57;1.80;;;15.40;91.80;;;;;;10435244;28;20273;-76
2023/04/24 09:35:51;;;;;;;4.07;2.73;;;15.10;91.40;;;;;;10429252;28;20221;-77
2023/04/24 09:40:52;;;;;;;2.43;1.80;;;15.00;93.10;;;;;;10434033;28;20225;-77
2023/04/24 09:45:56;;;;;;;2.00;1.70;;;15.30;93.80;;;;;;10425796;28;20914;-77
2023/04/24 09:50:57;;;;;;;2.40;2.00;;;15.20;93.40;;;;;;10417741;28;20224;-77
2023/04/24 09:56:09;;;;;;;2.73;2.10;;;15.30;93.30;;;;;;10433584;28;20227;-76
2023/04/24 10:01:10;;;;;;;2.07;1.63;;;15.30;93.60;;;;;;10424932;28;20735;-76
2023/04/24 10:06:12;;;;;;;2.57;1.20;;;16.30;94.10;;;;;;10433423;28;20250;-77
2023/04/24 10:11:13;;;;;;;1.43;1.33;;;19.60;83.30;;;;;;10425451;28;20225;-76
2023/04/24 10:16:15;;;;;;;5.47;2.00;;;19.10;81.20;;;;;;10432088;28;20752;-77
2023/04/24 10:21:17;;;;;;;3.73;1.40;;;17.70;86.20;;;;;;10432047;28;20238;-76
2023/04/24 10:26:19;;;;;;;4.17;2.13;;;16.60;90.00;;;;;;10430640;28;20317;-76
2023/04/24 10:31:21;;;;;;;2.30;1.60;;;15.60;91.70;;;;;;10423334;28;20774;-75
2023/04/24 10:36:23;;;;;;;3.33;1.73;;;15.00;93.70;;;;;;10412099;28;20226;-76
2023/04/24 10:41:25;;;;;;;1.60;1.50;;;15.00;94.50;;;;;;10425655;28;20233;-76
2023/04/24 10:46:28;;;;;;;3.27;1.40;;;15.70;94.10;;;;;;10415389;28;20313;-77
2023/04/24 10:51:50;;;;;;;1.73;1.30;;;16.70;92.50;;;;;;10422300;28;20280;-77
2023/04/24 10:56:52;;;;;;;3.47;1.57;;;17.30;90.40;;;;;;10416926;28;20219;-76
2023/04/24 11:01:55;;;;;;;3.27;1.47;;;17.20;90.00;;;;;;10430508;28;20241;-76
2023/04/24 11:06:55;;;;;;;2.00;1.70;;;16.70;91.20;;;;;;10401306;28;20270;-76
2023/04/24 11:12:10;;;;;;;2.07;1.80;;;16.00;92.90;;;;;;10429779;28;20258;-77
2023/04/24 11:17:29;;;;;;;1.63;1.40;;;15.30;95.80;;;;;;10418033;28;20628;-77
2023/04/24 11:22:33;;;;;;;5.27;2.07;;;14.90;98.70;;;;;;10422126;28;20229;-77
2023/04/24 11:27:46;;;;;;;2.60;2.40;;;14.40;99.90;;;;;;10420728;28;20805;-76
2023/04/24 11:32:52;;;;;;;2.87;2.60;;;13.90;99.90;;;;;;10429591;28;20219;-76
2023/04/24 11:37:54;;;;;;;3.33;2.70;;;13.40;99.90;;;;;;10422591;28;20300;-75
2023/04/24 11:42:55;;;;;;;3.57;2.53;;;13.20;99.90;;;;;;10430281;28;20308;-76
2023/04/24 11:47:56;;;;;;;4.07;2.87;;;13.10;99.90;;;;;;10420822;28;20245;-76
2023/04/24 11:52:57;;;;;;;4.17;2.70;;;13.10;99.90;;;;;;10414271;28;20784;-76
2023/04/24 11:57:59;;;;;;;3.23;2.27;;;13.00;99.90;;;;;;10422663;28;20273;-77
2023/04/24 12:03:12;;;;;;;2.40;2.17;;;12.70;99.90;;;;;;10420488;28;20264;-76
2023/04/24 12:08:28;;;;;;;2.30;2.10;;;12.50;99.90;;;;;;10426965;28;20227;-77
2023/04/24 12:13:29;;;;;;;2.50;1.90;;;12.80;99.90;;;;;;10435420;28;20234;-76
2023/04/24 12:18:30;;;;;;;2.07;1.70;;;13.30;99.90;;;;;;10428323;28;20699;-76
2023/04/24 12:23:37;;;;;;;5.17;1.90;;;14.00;99.90;;;;;;10431798;28;20228;-75
2023/04/24 12:28:38;;;;;;;4.43;2.10;;;14.90;99.90;;;;;;10430432;28;20226;-77
2023/04/24 12:33:39;;;;;;;2.80;2.37;;;15.10;99.90;;;;;;10420835;28;20226;-77
2023/04/24 12:38:44;;;;;;;3.23;2.60;;;15.20;99.90;;;;;;10430453;28;20237;-77
2023/04/24 12:43:52;;;;;;;4.40;2.90;;;15.50;99.90;;;;;;10427354;28;20229;-76
2023/04/24 12:48:53;;;;;;;3.97;2.33;;;15.90;99.90;;;;;;10425903;28;20322;-76
2023/04/24 12:53:53;;;;;;;2.93;2.20;;;16.10;99.90;;;;;;10427048;28;20799;-76
2023/04/24 12:58:54;;;;;;;4.20;2.63;;;16.00;99.90;;;;;;10418317;28;20260;-77
2023/04/24 13:03:55;;;;;;;3.60;3.00;;;16.30;99.90;;;;;;10429771;28;20248;-78
2023/04/24 13:08:57;;;;;;;4.57;2.63;;;16.30;99.90;;;;;;10429671;28;20218;-76
2023/04/24 13:13:58;;;;;;;4.67;2.60;;;16.30;99.90;;;;;;10402229;28;20225;-77
2023/04/24 13:18:58;;;;;;;2.83;2.63;;;16.40;99.90;;;;;;10427201;28;20226;-76
2023/04/24 13:23:59;;;;;;;4.80;2.40;;;16.70;99.90;;;;;;10433922;28;20242;-76
2023/04/24 13:29:00;;;;;;;3.80;2.63;;;16.70;99.90;;;;;;10427137;28;20292;-76
2023/04/24 13:34:02;;;;;;;3.77;3.00;;;16.70;99.90;;;;;;10430479;28;20221;-76
2023/04/24 13:39:04;;;;;;;6.23;2.57;;;17.00;99.90;;;;;;10435219;28;20757;-76
2023/04/24 13:44:06;;;;;;;4.47;2.43;;;17.10;99.90;;;;;;10434750;28;20563;-76
2023/04/24 13:49:06;;;;;;;2.57;2.30;;;16.80;98.90;;;;;;10424654;28;20217;-76
2023/04/24 13:54:07;;;;;;;4.03;2.60;;;16.10;99.90;;;;;;10431521;28;20226;-76
2023/04/24 13:59:08;;;;;;;6.73;2.90;;;15.90;99.90;;;;;;10426974;28;20291;-76
2023/04/24 14:04:09;;;;;;;3.57;2.50;;;15.60;99.90;;;;;;10430954;28;20691;-76
2023/04/24 14:09:09;;;;;;;4.37;2.43;;;15.60;99.90;;;;;;10426707;28;20318;-76
2023/04/24 14:14:11;;;;;;;4.00;2.50;;;15.60;99.90;;;;;;10429888;28;20295;-76
2023/04/24 14:19:11;;;;;;;8.07;2.90;;;15.80;99.90;;;;;;10425537;28;20709;-76
2023/04/24 14:24:12;;;;;;;2.50;2.30;;;15.80;99.90;;;;;;10429770;28;20218;-77
2023/04/24 14:29:13;;;;;;;3.03;2.70;;;15.60;99.90;;;;;;10419674;28;20249;-76
2023/04/24 14:34:14;;;;;;;3.37;2.73;;;15.60;99.90;;;;;;10424577;28;20721;-76
2023/04/24 14:39:14;;;;;;;3.10;2.40;;;15.40;99.90;;;;;;10425926;28;20220;-75
2023/04/24 14:44:15;;;;;;;3.20;2.40;;;15.40;99.90;;;;;;10422775;28;20235;-76
2023/04/24 14:49:16;;;;;;;3.20;2.50;;;15.40;99.90;;;;;;10419801;28;20214;-77
2023/04/24 14:54:16;;;;;;;3.90;2.80;;;15.30;99.90;;;;;;10421157;28;20702;-77
2023/04/24 14:59:17;;;;;;;5.40;2.70;;;15.30;99.90;;;;;;10422489;28;20305;-76
2023/04/24 15:04:17;;;;;;;2.67;2.13;;;15.30;99.90;;;;;;10418252;28;20289;-76
2023/04/24 15:09:18;;;;;;;2.83;2.30;;;15.20;99.90;;;;;;10427297;28;20234;-76
2023/04/24 15:14:19;;;;;;;2.70;2.43;;;15.00;99.90;;;;;;10426116;28;20219;-76
2023/04/24 15:19:19;;;;;;;3.30;2.60;;;15.00;99.90;;;;;;10427774;28;20224;-77
2023/04/24 15:24:20;;;;;;;4.77;2.43;;;15.00;99.90;;;;;;10425555;28;20223;-76
2023/04/24 15:29:20;;;;;;;4.07;3.57;;;15.00;99.90;;;;;;10425920;28;20218;-75
2023/04/24 15:34:22;;;;;;;3.70;2.53;;;15.50;99.90;;;;;;10424124;28;20881;-76
2023/04/24 15:39:24;;;;;;;3.43;2.40;;;15.80;99.00;;;;;;10428692;28;20414;-75
2023/04/24 15:44:24;;;;;;;3.97;3.00;;;15.80;98.60;;;;;;10413448;28;20231;-76
2023/04/24 15:49:25;;;;;;;3.00;2.47;;;15.70;98.70;;;;;;10425997;28;20227;-76
2023/04/24 15:54:26;;;;;;;4.50;2.70;;;15.70;98.90;;;;;;10425110;28;20213;-76
2023/04/24 15:59:30;;;;;;;4.47;2.37;;;15.90;98.40;;;;;;10418827;28;20311;-76
2023/04/24 16:04:33;;;;;;;3.73;2.90;;;16.20;98.10;;;;;;10424386;28;20225;-77
2023/04/24 16:09:34;;;;;;;3.27;2.63;;;16.10;98.00;;;;;;10425602;28;20692;-76
2023/04/24 16:14:35;;;;;;;3.30;2.70;;;15.90;98.80;;;;;;10427440;28;20217;-75
2023/04/24 16:19:36;;;;;;;3.43;2.67;;;15.40;99.50;;;;;;10415825;28;20238;-75
2023/04/24 16:24:36;;;;;;;2.60;2.40;;;15.20;99.90;;;;;;10426889;28;20221;-77
2023/04/24 16:29:37;;;;;;;4.57;2.90;;;15.10;99.90;;;;;;10423768;28;20696;-76
2023/04/24 16:34:38;;;;;;;4.93;3.00;;;15.10;99.90;;;;;;10419642;28;20278;-77
2023/04/24 16:39:42;;;;;;;4.10;2.70;;;15.00;99.90;;;;;;10419840;28;20227;-76
2023/04/24 16:44:43;;;;;;;3.10;2.50;;;14.60;99.90;;;;;;10424016;28;20217;-77
2023/04/24 16:49:44;;;;;;;3.40;3.10;;;14.50;99.90;;;;;;10421386;28;20440;-77
2023/04/24 16:54:44;;;;;;;4.47;2.87;;;14.60;99.90;;;;;;10422077;28;20225;-76
2023/04/24 16:59:45;;;;;;;6.33;3.00;;;15.00;99.90;;;;;;10430581;28;20316;-77
2023/04/24 17:04:46;;;;;;;6.20;3.30;;;15.10;99.90;;;;;;10419872;28;20674;-78
2023/04/24 17:09:47;;;;;;;3.83;2.90;;;14.60;99.90;;;;;;10421407;28;20220;-77
2023/04/24 17:14:48;;;;;;;5.40;3.60;;;14.10;99.90;;;;;;10427261;28;20231;-76
2023/04/24 17:19:50;;;;;;;5.10;3.50;;;13.80;99.90;;;;;;10432642;28;20586;-76
2023/04/24 17:24:50;;;;;;;4.53;4.07;;;13.60;99.90;;;;;;10427320;28;20231;-75
2023/04/24 17:29:51;;;;;;;5.67;4.40;;;13.40;99.90;;;;;;10427235;28;20224;-75
2023/04/24 17:34:51;;;;;;;5.80;4.70;;;13.20;99.90;;;;;;10425083;28;20691;-75
2023/04/24 17:39:52;;;;;;;6.27;4.93;;;12.90;99.90;;;;;;10425371;28;20311;-75
2023/04/24 17:44:54;;;;;;;7.93;5.30;;;12.60;99.90;;;;;;10432113;28;20277;-75
2023/04/24 17:49:55;;;;;;;6.40;4.77;;;12.40;99.90;;;;;;10421657;28;20925;-76
2023/04/24 17:54:56;;;;;;;6.87;5.17;;;12.20;99.90;;;;;;10418464;28;20233;-77
2023/04/24 17:59:56;;;;;;;8.17;4.93;;;11.90;99.90;;;;;;10430916;28;20222;-72
2023/04/24 18:04:57;;;;;;;6.13;5.00;;;11.60;99.90;;;;;;10425734;28;20216;-73
2023/04/24 18:09:57;;;;;;;7.73;5.30;;;11.40;99.90;;;;;;10432914;28;20216;-73
2023/04/24 18:14:58;;;;;;;3.97;3.67;;;11.40;99.90;;;;;;10399585;28;20286;-74
2023/04/24 18:19:59;;;;;;;4.53;3.70;;;11.30;99.90;;;;;;10431647;28;20660;-75
2023/04/24 18:25:00;;;;;;;4.40;3.87;;;11.20;99.90;;;;;;10423905;28;20606;-72
2023/04/24 18:30:01;;;;;;;3.87;3.47;;;11.20;99.90;;;;;;10427020;28;20216;-75
2023/04/24 18:35:02;;;;;;;4.37;3.97;;;11.20;99.90;;;;;;10419307;28;20270;-75
2023/04/24 18:40:04;;;;;;;5.00;3.90;;;11.10;99.90;;;;;;10424557;28;20299;-75
2023/04/24 18:45:05;;;;;;;5.10;4.20;;;11.20;99.90;;;;;;10416462;28;20220;-75
2023/04/24 18:50:06;;;;;;;6.77;5.07;;;11.20;99.90;;;;;;10426658;28;20211;-75
2023/04/24 18:55:08;;;;;;;4.23;3.83;;;11.30;99.90;;;;;;10412115;28;20181;-74
2023/04/24 19:00:09;;;;;;;4.77;4.17;;;11.30;99.90;;;;;;10426755;28;20222;-74
2023/04/24 19:05:10;;;;;;;8.47;4.33;;;11.30;99.90;;;;;;10418734;28;20181;-75
2023/04/24 19:10:12;;;;;;;5.33;4.27;;;11.30;99.90;;;;;;10407106;28;20183;-75
2023/04/24 19:15:12;;;;;;;4.50;4.03;;;11.30;99.90;;;;;;10416367;28;20181;-75
2023/04/24 19:20:13;;;;;;;5.67;4.37;;;11.30;99.90;;;;;;10427946;28;20697;-75
2023/04/24 19:25:13;;;;;;;5.00;4.20;;;11.30;99.90;;;;;;10429936;28;20184;-74
2023/04/24 19:30:14;;;;;;;5.03;4.53;;;11.20;99.90;;;;;;10421758;28;20624;-75
2023/04/24 19:35:15;;;;;;;6.67;5.00;;;11.20;99.90;;;;;;10423831;28;20231;-74
2023/04/24 19:40:16;;;;;;;4.73;4.30;;;11.20;99.90;;;;;;10422066;28;20223;-75
2023/04/24 19:45:16;;;;;;;4.50;3.90;;;11.10;99.90;;;;;;10427129;28;20212;-75
2023/04/24 19:50:18;;;;;;;4.87;4.20;;;11.20;99.90;;;;;;10424308;28;20213;-75
2023/04/24 19:55:19;;;;;;;5.33;4.33;;;11.10;99.90;;;;;;10422683;28;20200;-76
2023/04/24 20:00:20;;;;;;;3.97;3.63;;;11.10;99.90;;;;;;10420896;28;20216;-74
2023/04/24 20:05:20;;;;;;;5.47;3.90;;;11.10;99.90;;;;;;10435155;28;20192;-74
2023/04/24 20:10:21;;;;;;;5.20;3.93;;;11.10;99.90;;;;;;10425144;28;20283;-75
2023/04/24 20:15:22;;;;;;;6.10;3.73;;;11.20;99.90;;;;;;10428734;28;20195;-75
2023/04/24 20:20:22;;;;;;;4.00;3.67;;;11.10;99.90;;;;;;10424594;28;20872;-75
2023/04/24 20:25:23;;;;;;;3.93;3.53;;;11.20;99.90;;;;;;10422385;28;20703;-74
2023/04/24 20:30:24;;;;;;;4.53;4.10;;;11.20;99.90;;;;;;10425421;28;20565;-75
2023/04/24 20:35:25;;;;;;;4.77;4.03;;;11.20;99.90;;;;;;10426161;28;20235;-75
2023/04/24 20:40:28;;;;;;;4.57;3.80;;;11.10;99.90;;;;;;10433020;28;20234;-74
2023/04/24 20:45:29;;;;;;;4.70;4.30;;;11.10;99.90;;;;;;10436983;28;20227;-75
2023/04/24 20:50:31;;;;;;;4.60;4.20;;;11.10;99.90;;;;;;10423331;28;20224;-75
2023/04/24 20:55:32;;;;;;;6.27;4.53;;;11.10;99.90;;;;;;10429375;28;20277;-77
2023/04/24 21:00:36;;;;;;;4.93;4.40;;;11.00;99.90;;;;;;10435071;28;20228;-79
2023/04/24 21:05:36;;;;;;;6.47;5.10;;;11.00;99.90;;;;;;10418598;28;20227;-79
2023/04/24 21:10:37;;;;;;;5.63;4.90;;;11.00;99.90;;;;;;10415106;28;20239;-78
2023/04/24 21:15:38;;;;;;;5.33;4.90;;;11.10;99.90;;;;;;10432632;28;20231;-78
2023/04/24 21:20:39;;;;;;;5.90;5.40;;;11.00;99.90;;;;;;10407308;28;20236;-77
2023/04/24 21:25:40;;;;;;;5.33;4.83;;;11.00;99.90;;;;;;10415857;28;20232;-75
2023/04/24 21:30:52;;;;;;;6.10;5.50;;;11.00;99.90;;;;;;10426571;28;20367;-76
2023/04/24 21:35:52;;;;;;;6.33;5.73;;;11.00;99.90;;;;;;10416767;28;20244;-70
2023/04/24 21:40:53;;;;;;;5.80;5.30;;;11.00;99.90;;;;;;10424785;28;20236;-73
2023/04/24 21:45:55;;;;;;;5.90;5.40;;;11.10;99.90;;;;;;10400722;28;20315;-70
2023/04/24 21:50:59;;;;;;;6.37;5.77;;;11.10;99.90;;;;;;10408227;28;20217;-70
2023/04/24 21:55:59;;;;;;;9.40;5.63;;;11.10;99.90;;;;;;10417931;28;20232;-71
2023/04/24 22:01:00;;;;;;;6.23;5.63;;;11.10;99.90;;;;;;10415668;28;20258;-72
2023/04/24 22:06:01;;;;;;;6.60;5.87;;;11.00;99.90;;;;;;10411855;28;20225;-71
2023/04/24 22:11:01;;;;;;;6.00;5.33;;;11.00;99.90;;;;;;10424960;28;20281;-71
2023/04/24 22:16:02;;;;;;;6.67;5.60;;;11.00;99.90;;;;;;10427424;28;20648;-72
2023/04/24 22:21:06;;;;;;;5.90;5.30;;;11.00;99.90;;;;;;10425851;28;20715;-72
2023/04/24 22:26:06;;;;;;;5.90;5.40;;;11.00;99.90;;;;;;10430253;28;20233;-71
2023/04/24 22:31:07;;;;;;;6.23;5.63;;;11.00;99.90;;;;;;10414626;28;20843;-73
2023/04/24 22:36:08;;;;;;;7.40;5.63;;;11.00;99.90;;;;;;10425601;28;20727;-72
2023/04/24 22:41:08;;;;;;;6.10;5.50;;;10.90;99.90;;;;;;10415214;28;20823;-71
2023/04/24 22:46:15;;;;;;;6.90;4.70;;;10.90;99.90;;;;;;10403750;28;20221;-69
2023/04/24 22:51:16;;;;;;;4.23;3.83;;;10.90;99.90;;;;;;10430922;28;20232;-71
2023/04/24 22:56:20;;;;;;;3.43;3.17;;;10.70;99.90;;;;;;10428413;28;20224;-76
2023/04/24 23:01:21;;;;;;;3.40;2.87;;;10.60;99.90;;;;;;10417734;28;20305;-71
2023/04/24 23:06:21;;;;;;;3.57;2.97;;;10.40;99.90;;;;;;10422708;28;20247;-70
2023/04/24 23:11:22;;;;;;;2.83;2.63;;;10.30;99.90;;;;;;10411312;28;20228;-69
2023/04/24 23:16:23;;;;;;;2.90;2.60;;;10.30;99.90;;;;;;10416177;28;20621;-71
2023/04/24 23:21:23;;;;;;;3.23;3.03;;;10.30;99.90;;;;;;10416114;28;20228;-70
2023/04/24 23:26:24;;;;;;;2.80;2.60;;;10.20;99.90;;;;;;10425221;28;20216;-72
2023/04/24 23:31:25;;;;;;;3.67;3.00;;;10.20;99.90;;;;;;10428235;28;20227;-71
2023/04/24 23:36:25;;;;;;;5.53;3.10;;;10.30;99.90;;;;;;10424683;28;20746;-72
2023/04/24 23:41:26;;;;;;;3.20;3.00;;;10.20;99.90;;;;;;10410389;28;20259;-71
2023/04/24 23:46:27;;;;;;;2.77;2.57;;;10.10;99.90;;;;;;10407609;28;20230;-71
2023/04/24 23:51:28;;;;;;;3.23;3.00;;;10.10;99.90;;;;;;10418339;28;20680;-73
2023/04/24 23:56:28;;;;;;;3.47;3.00;;;10.00;99.90;;;;;;10415960;28;20247;-69
